Time;durP1;ratioP1;P1;durP2;ratioP2;P2;SDS_P1;SDS_P2;PMS_P1;PMS_P2;Temp;Humidity;BMP_temperature;BMP_pressure;BME280_temperature;BME280_humidity;BME280_pressure;Samples;Min_cycle;Max_cycle;Signal;HPM_P1;HPM_P2
2024/01/02 00:02:07;;;;;;;3.83;2.30;;;6.80;99.90;;;;;;4898786;29;20190;-66
2024/01/02 00:04:33;;;;;;;7.23;2.50;;;6.80;99.90;;;;;;4905298;29;20176;-59
2024/01/02 00:06:58;;;;;;;3.50;1.83;;;6.90;99.90;;;;;;4908700;29;20419;-62
2024/01/02 00:09:24;;;;;;;5.30;3.47;;;6.80;99.90;;;;;;4907844;29;20193;-61
2024/01/02 00:11:49;;;;;;;4.70;2.87;;;6.80;99.90;;;;;;4900532;29;20719;-61
2024/01/02 00:14:15;;;;;;;4.30;2.17;;;6.80;99.90;;;;;;4900330;29;20249;-63
2024/01/02 00:16:40;;;;;;;5.40;2.00;;;6.80;99.90;;;;;;4904607;29;20653;-67
2024/01/02 00:19:06;;;;;;;5.03;1.90;;;6.80;99.90;;;;;;4904033;29;20178;-61
2024/01/02 00:21:32;;;;;;;2.60;1.63;;;6.80;99.90;;;;;;4916856;29;20192;-58
2024/01/02 00:23:58;;;;;;;4.87;2.10;;;6.80;99.90;;;;;;4899737;29;20181;-61
2024/01/02 00:26:24;;;;;;;5.07;2.47;;;6.80;99.90;;;;;;4896816;29;20656;-58
2024/01/02 00:28:50;;;;;;;2.07;1.47;;;6.80;99.90;;;;;;4897320;29;20499;-59
2024/01/02 00:31:15;;;;;;;3.00;2.07;;;6.80;99.90;;;;;;4898516;29;20652;-60
2024/01/02 00:33:41;;;;;;;2.40;1.47;;;6.80;99.90;;;;;;4909659;29;20663;-58
2024/01/02 00:36:13;;;;;;;3.10;1.43;;;6.70;99.90;;;;;;4912826;29;20180;-57
2024/01/02 00:38:38;;;;;;;2.87;1.70;;;6.70;99.90;;;;;;4901351;29;20189;-59
2024/01/02 00:41:05;;;;;;;3.57;1.63;;;6.60;99.90;;;;;;4901006;29;20433;-59
2024/01/02 00:43:31;;;;;;;4.10;1.77;;;6.60;99.90;;;;;;4908476;29;20181;-60
2024/01/02 00:45:59;;;;;;;5.27;1.93;;;6.60;99.90;;;;;;4903229;29;20414;-61
2024/01/02 00:48:25;;;;;;;3.63;1.60;;;6.60;99.90;;;;;;4903424;29;20234;-61
2024/01/02 00:50:51;;;;;;;2.87;2.17;;;6.60;99.90;;;;;;4910877;29;20442;-58
2024/01/02 00:53:17;;;;;;;9.33;2.13;;;6.50;99.90;;;;;;4898297;29;20425;-60
2024/01/02 00:55:43;;;;;;;2.03;1.30;;;6.60;99.90;;;;;;4900539;29;20182;-61
2024/01/02 00:58:08;;;;;;;2.30;1.70;;;6.50;99.90;;;;;;4907474;29;20231;-58
2024/01/02 01:00:34;;;;;;;2.83;1.60;;;6.50;99.90;;;;;;4903656;29;20450;-61
2024/01/02 01:03:00;;;;;;;6.27;2.47;;;6.40;99.90;;;;;;4908657;29;20172;-59
2024/01/02 01:05:26;;;;;;;1.70;1.53;;;6.40;99.90;;;;;;4907727;29;20177;-59
2024/01/02 01:07:55;;;;;;;3.80;2.13;;;6.50;99.90;;;;;;4912856;29;20267;-59
2024/01/02 01:10:21;;;;;;;3.77;1.83;;;6.40;99.90;;;;;;4905000;29;20984;-59
2024/01/02 01:12:46;;;;;;;3.20;1.90;;;6.40;99.90;;;;;;4909626;29;20417;-61
2024/01/02 01:15:12;;;;;;;4.50;1.97;;;6.40;99.90;;;;;;4908089;29;20184;-59
2024/01/02 01:17:39;;;;;;;3.13;2.00;;;6.40;99.90;;;;;;4911235;29;20221;-57
2024/01/02 01:20:05;;;;;;;2.27;1.83;;;6.40;99.90;;;;;;4911590;29;20625;-62
2024/01/02 01:22:31;;;;;;;2.97;1.73;;;6.40;99.90;;;;;;4907356;29;20419;-60
2024/01/02 01:24:56;;;;;;;3.53;1.80;;;6.40;99.90;;;;;;4912618;29;20425;-58
2024/01/02 01:27:22;;;;;;;3.90;1.70;;;6.40;99.90;;;;;;4912693;29;20189;-60
2024/01/02 01:29:47;;;;;;;4.33;1.80;;;6.40;99.90;;;;;;4908467;29;20219;-59
2024/01/02 01:32:13;;;;;;;1.90;1.70;;;6.40;99.90;;;;;;4892505;29;20697;-61
2024/01/02 01:34:39;;;;;;;6.20;1.93;;;6.40;99.90;;;;;;4901293;29;20204;-61
2024/01/02 01:37:04;;;;;;;4.23;1.73;;;6.40;99.90;;;;;;4896433;29;20256;-59
2024/01/02 01:39:30;;;;;;;4.03;1.93;;;6.40;99.90;;;;;;4900600;29;20189;-58
2024/01/02 01:41:56;;;;;;;4.20;1.90;;;6.30;99.90;;;;;;4904704;29;20212;-59
2024/01/02 01:44:21;;;;;;;3.13;1.70;;;6.30;99.90;;;;;;4915797;29;20182;-61
2024/01/02 01:46:47;;;;;;;3.27;1.70;;;6.30;99.90;;;;;;4912271;29;20184;-60
2024/01/02 01:49:14;;;;;;;2.53;1.67;;;6.30;99.90;;;;;;4898486;29;20184;-58
2024/01/02 01:51:41;;;;;;;5.77;1.80;;;6.20;99.90;;;;;;4907928;29;20200;-60
2024/01/02 01:54:09;;;;;;;2.87;2.10;;;6.20;99.90;;;;;;4903035;29;20485;-60
2024/01/02 01:56:35;;;;;;;2.97;2.07;;;6.20;99.90;;;;;;4903890;29;20556;-60
2024/01/02 01:59:04;;;;;;;5.30;2.07;;;6.20;99.90;;;;;;4899383;29;20509;-58
2024/01/02 02:01:30;;;;;;;3.27;1.80;;;6.10;99.90;;;;;;4917234;29;20192;-59
2024/01/02 02:03:58;;;;;;;3.00;1.80;;;6.10;99.90;;;;;;4898657;29;20424;-63
2024/01/02 02:06:24;;;;;;;6.20;2.10;;;6.10;99.90;;;;;;4898769;29;20845;-58
2024/01/02 02:08:50;;;;;;;5.17;1.87;;;6.00;99.90;;;;;;4899827;29;20413;-61
2024/01/02 02:11:16;;;;;;;6.53;2.00;;;5.90;99.90;;;;;;4896819;29;20291;-60
2024/01/02 02:13:42;;;;;;;6.47;2.00;;;5.80;99.90;;;;;;4902322;29;20438;-60
2024/01/02 02:16:08;;;;;;;4.77;2.20;;;5.80;99.90;;;;;;4904278;29;21042;-59
2024/01/02 02:18:34;;;;;;;8.90;2.07;;;5.80;99.90;;;;;;4898022;29;20177;-60
2024/01/02 02:20:59;;;;;;;3.00;2.00;;;5.80;99.90;;;;;;4900013;29;20198;-58
2024/01/02 02:23:25;;;;;;;5.70;2.40;;;5.80;99.90;;;;;;4909612;29;20194;-59
2024/01/02 02:25:50;;;;;;;8.93;3.20;;;5.70;99.90;;;;;;4912729;29;20184;-59
2024/01/02 02:28:16;;;;;;;5.47;2.17;;;5.60;99.90;;;;;;4913342;29;20504;-61
2024/01/02 02:30:42;;;;;;;5.20;1.80;;;5.60;99.90;;;;;;4918426;29;20251;-60
2024/01/02 02:33:07;;;;;;;6.83;2.90;;;5.50;99.90;;;;;;4898364;29;20203;-59
2024/01/02 02:35:33;;;;;;;8.00;3.53;;;5.50;99.90;;;;;;4908273;29;20188;-61
2024/01/02 02:37:58;;;;;;;4.03;1.60;;;5.40;99.90;;;;;;4902777;29;20259;-60
2024/01/02 02:40:25;;;;;;;7.23;2.10;;;5.40;99.90;;;;;;4900919;29;20635;-61
2024/01/02 02:42:51;;;;;;;6.70;1.90;;;5.30;99.90;;;;;;4907720;29;20207;-60
2024/01/02 02:45:16;;;;;;;4.77;2.57;;;5.30;99.90;;;;;;4910613;29;20424;-60
2024/01/02 02:47:42;;;;;;;5.53;1.83;;;5.20;99.90;;;;;;4912366;29;20196;-60
2024/01/02 02:50:08;;;;;;;7.40;2.27;;;5.20;99.90;;;;;;4910301;29;20216;-60
2024/01/02 02:52:33;;;;;;;8.47;2.20;;;5.10;99.90;;;;;;4905080;29;20176;-61
2024/01/02 02:54:59;;;;;;;4.27;2.70;;;5.10;99.90;;;;;;4905879;29;20264;-58
2024/01/02 02:57:25;;;;;;;7.60;3.40;;;5.10;99.90;;;;;;4909397;29;20196;-59
2024/01/02 02:59:51;;;;;;;8.17;2.23;;;5.00;99.90;;;;;;4904534;29;20267;-60
2024/01/02 03:02:17;;;;;;;5.23;2.00;;;4.90;99.90;;;;;;4915353;29;20468;-61
2024/01/02 03:04:44;;;;;;;11.20;2.70;;;4.90;99.90;;;;;;4909680;29;20464;-60
2024/01/02 03:07:10;;;;;;;4.80;2.30;;;4.80;99.90;;;;;;4921938;23;20491;-64
2024/01/02 03:09:36;;;;;;;7.27;2.23;;;4.80;99.90;;;;;;4927439;29;20430;-64
2024/01/02 03:12:02;;;;;;;9.63;4.63;;;4.80;99.90;;;;;;4927532;29;20439;-64
2024/01/02 03:14:27;;;;;;;9.10;2.30;;;4.80;99.90;;;;;;4935787;28;20897;-64
2024/01/02 03:16:53;;;;;;;13.50;2.53;;;4.80;99.90;;;;;;4923687;29;20207;-66
2024/01/02 03:19:19;;;;;;;8.83;2.00;;;4.80;99.90;;;;;;4921265;29;20336;-64
2024/01/02 03:21:45;;;;;;;6.63;2.07;;;4.80;99.90;;;;;;4921543;29;20961;-65
2024/01/02 03:24:10;;;;;;;5.53;1.93;;;4.70;99.90;;;;;;4919789;29;20190;-65
2024/01/02 03:26:36;;;;;;;3.00;1.63;;;4.70;99.90;;;;;;4920827;29;20559;-64
2024/01/02 03:29:01;;;;;;;7.70;2.50;;;4.60;99.90;;;;;;4920387;29;20187;-65
2024/01/02 03:31:27;;;;;;;10.30;2.60;;;4.60;99.90;;;;;;4920611;29;20911;-63
2024/01/02 03:33:53;;;;;;;5.07;2.27;;;4.60;99.90;;;;;;4920937;29;20187;-66
2024/01/02 03:36:19;;;;;;;13.00;2.73;;;4.50;99.90;;;;;;4918276;29;20697;-65
2024/01/02 03:38:49;;;;;;;10.40;2.20;;;4.50;99.90;;;;;;4912259;29;20238;-65
2024/01/02 03:41:15;;;;;;;4.70;2.87;;;4.50;99.90;;;;;;4914458;29;20428;-65
2024/01/02 03:43:41;;;;;;;6.53;2.47;;;4.40;99.90;;;;;;4918208;29;20483;-65
2024/01/02 03:46:07;;;;;;;8.30;3.20;;;4.40;99.90;;;;;;4917355;29;20175;-65
2024/01/02 03:48:33;;;;;;;7.20;2.83;;;4.40;99.90;;;;;;4917294;29;20286;-65
2024/01/02 03:51:00;;;;;;;5.43;2.00;;;4.40;99.90;;;;;;4919290;29;21047;-65
2024/01/02 03:53:26;;;;;;;13.10;2.63;;;4.40;99.90;;;;;;4920661;29;20673;-65
2024/01/02 03:55:52;;;;;;;8.90;2.57;;;4.30;99.90;;;;;;4917986;29;20415;-65
2024/01/02 03:58:18;;;;;;;7.97;3.17;;;4.30;99.90;;;;;;4914364;29;20973;-65
2024/01/02 04:00:43;;;;;;;7.50;2.50;;;4.30;99.90;;;;;;4917777;29;20202;-68
2024/01/02 04:03:10;;;;;;;6.93;2.33;;;4.30;99.90;;;;;;4918174;29;20188;-65
2024/01/02 04:05:35;;;;;;;7.80;2.30;;;4.30;99.90;;;;;;4925806;29;20182;-65
2024/01/02 04:08:01;;;;;;;9.20;2.97;;;4.30;99.90;;;;;;4917708;29;20463;-65
2024/01/02 04:10:26;;;;;;;8.50;2.57;;;4.30;99.90;;;;;;4917601;29;20176;-65
2024/01/02 04:12:52;;;;;;;6.00;2.40;;;4.20;99.90;;;;;;4917956;29;20220;-64
2024/01/02 04:15:17;;;;;;;8.17;2.53;;;4.20;99.90;;;;;;4920323;29;20529;-65
2024/01/02 04:17:43;;;;;;;7.30;2.23;;;4.20;99.90;;;;;;4913704;29;20223;-64
2024/01/02 04:20:09;;;;;;;8.93;2.57;;;4.30;99.90;;;;;;4917978;29;20184;-65
2024/01/02 04:22:35;;;;;;;4.37;2.30;;;4.30;99.90;;;;;;4917605;29;20182;-64
2024/01/02 04:25:00;;;;;;;6.93;2.83;;;4.20;99.90;;;;;;4918701;29;20423;-64
2024/01/02 04:27:26;;;;;;;4.83;2.47;;;4.20;99.90;;;;;;4917078;29;20202;-63
2024/01/02 04:29:52;;;;;;;5.73;2.27;;;4.20;99.90;;;;;;4916750;29;20184;-65
2024/01/02 04:32:17;;;;;;;9.40;2.60;;;4.10;99.90;;;;;;4912108;29;20187;-65
2024/01/02 04:34:43;;;;;;;9.30;2.80;;;4.10;99.90;;;;;;4918236;29;20259;-65
2024/01/02 04:37:08;;;;;;;4.73;2.40;;;4.10;99.90;;;;;;4920073;29;20211;-64
2024/01/02 04:39:34;;;;;;;4.57;2.63;;;4.10;99.90;;;;;;4916775;29;20303;-65
2024/01/02 04:42:01;;;;;;;7.37;2.67;;;4.10;99.90;;;;;;4915042;29;20656;-64
2024/01/02 04:44:27;;;;;;;5.70;3.70;;;4.00;99.90;;;;;;4915895;29;20265;-63
2024/01/02 04:46:52;;;;;;;10.23;2.50;;;4.00;99.90;;;;;;4910707;29;20470;-64
2024/01/02 04:49:18;;;;;;;10.50;2.30;;;4.00;99.90;;;;;;4919311;29;20420;-64
2024/01/02 04:51:44;;;;;;;8.93;2.37;;;3.90;99.90;;;;;;4916748;29;20223;-64
2024/01/02 04:54:10;;;;;;;8.40;2.83;;;3.90;99.90;;;;;;4916079;29;20188;-64
2024/01/02 04:56:35;;;;;;;7.00;2.77;;;3.90;99.90;;;;;;4908375;29;20554;-64
2024/01/02 04:59:01;;;;;;;5.77;2.00;;;3.90;99.90;;;;;;4913064;29;20673;-65
2024/01/02 05:01:26;;;;;;;9.53;2.70;;;3.90;99.90;;;;;;4919245;29;20183;-65
2024/01/02 05:03:52;;;;;;;6.70;2.50;;;3.90;99.90;;;;;;4917338;29;20172;-65
2024/01/02 05:06:18;;;;;;;12.60;3.03;;;3.90;99.90;;;;;;4915862;29;20176;-64
2024/01/02 05:08:43;;;;;;;11.73;2.90;;;3.90;99.90;;;;;;4915777;29;20729;-64
2024/01/02 05:11:09;;;;;;;8.43;3.00;;;3.90;99.90;;;;;;4916056;29;20728;-63
2024/01/02 05:13:36;;;;;;;6.53;2.83;;;3.90;99.90;;;;;;4916660;29;20179;-64
2024/01/02 05:16:01;;;;;;;7.77;2.77;;;3.90;99.90;;;;;;4917217;29;20183;-65
2024/01/02 05:18:27;;;;;;;6.30;3.03;;;3.90;99.90;;;;;;4915579;29;20479;-64
2024/01/02 05:20:53;;;;;;;9.23;4.17;;;3.90;99.90;;;;;;4916589;29;20676;-66
2024/01/02 05:23:18;;;;;;;12.63;3.87;;;3.90;99.90;;;;;;4917362;29;20518;-66
2024/01/02 05:25:44;;;;;;;9.30;3.20;;;3.90;99.90;;;;;;4917116;29;20175;-65
2024/01/02 05:28:10;;;;;;;7.13;3.27;;;4.00;99.90;;;;;;4918468;29;20208;-65
2024/01/02 05:30:35;;;;;;;7.17;2.90;;;4.00;99.90;;;;;;4916662;29;20192;-65
2024/01/02 05:33:01;;;;;;;10.70;2.67;;;4.00;99.90;;;;;;4916471;29;20630;-66
2024/01/02 05:35:26;;;;;;;2.33;1.90;;;4.00;99.90;;;;;;4918524;29;20242;-65
2024/01/02 05:37:52;;;;;;;12.80;3.37;;;4.00;99.90;;;;;;4915937;29;20671;-65
2024/01/02 05:40:18;;;;;;;9.00;2.07;;;4.00;99.90;;;;;;4915686;29;20651;-64
2024/01/02 05:42:43;;;;;;;3.80;2.10;;;4.00;99.90;;;;;;4917057;29;20218;-65
2024/01/02 05:45:09;;;;;;;6.23;2.73;;;4.00;99.90;;;;;;4915710;29;20189;-65
2024/01/02 05:47:35;;;;;;;3.13;2.30;;;4.00;99.90;;;;;;4916704;29;20645;-65
2024/01/02 05:50:00;;;;;;;6.00;2.70;;;3.90;99.90;;;;;;4914759;29;20262;-64
2024/01/02 05:52:26;;;;;;;4.47;3.10;;;3.90;99.90;;;;;;4915934;29;20191;-65
2024/01/02 05:54:51;;;;;;;6.33;2.33;;;4.00;99.90;;;;;;4915119;29;20265;-64
2024/01/02 05:57:17;;;;;;;6.13;2.10;;;4.00;99.90;;;;;;4913572;29;20580;-65
2024/01/02 05:59:43;;;;;;;9.60;2.47;;;4.00;99.90;;;;;;4907877;29;20176;-63
2024/01/02 06:02:08;;;;;;;5.33;3.20;;;4.00;99.90;;;;;;4922125;29;20168;-64
2024/01/02 06:04:34;;;;;;;6.30;1.80;;;4.00;99.90;;;;;;4915395;29;20211;-63
2024/01/02 06:06:59;;;;;;;6.90;2.10;;;4.00;99.90;;;;;;4915652;29;20627;-64
2024/01/02 06:09:25;;;;;;;9.80;2.33;;;4.00;99.90;;;;;;4915735;29;20520;-65
2024/01/02 06:11:51;;;;;;;7.90;1.97;;;4.00;99.90;;;;;;4916056;29;20186;-64
2024/01/02 06:14:17;;;;;;;8.37;2.00;;;4.00;99.90;;;;;;4915960;29;20270;-64
2024/01/02 06:16:42;;;;;;;8.40;2.30;;;4.00;99.90;;;;;;4916394;29;20577;-64
2024/01/02 06:19:08;;;;;;;6.00;2.50;;;4.00;99.90;;;;;;4915801;29;20172;-63
2024/01/02 06:21:34;;;;;;;9.97;3.80;;;4.00;99.90;;;;;;4914731;29;20555;-64
2024/01/02 06:23:59;;;;;;;7.50;2.83;;;4.00;99.90;;;;;;4910281;29;20203;-64
2024/01/02 06:26:25;;;;;;;6.60;1.93;;;4.00;99.90;;;;;;4915498;29;20175;-64
2024/01/02 06:28:51;;;;;;;5.93;2.30;;;4.00;99.90;;;;;;4916751;29;20686;-64
2024/01/02 06:31:19;;;;;;;5.50;2.47;;;4.00;99.90;;;;;;4914920;29;20275;-63
2024/01/02 06:33:45;;;;;;;4.93;2.20;;;4.10;99.90;;;;;;4915678;29;20187;-65
2024/01/02 06:36:11;;;;;;;3.37;2.10;;;4.00;99.90;;;;;;4920505;29;20467;-64
2024/01/02 06:38:38;;;;;;;2.37;2.17;;;4.00;99.90;;;;;;4912602;29;20267;-64
2024/01/02 06:41:04;;;;;;;7.63;2.30;;;4.10;99.90;;;;;;4916681;29;20419;-64
2024/01/02 06:43:30;;;;;;;7.83;2.67;;;4.00;99.90;;;;;;4920088;29;20420;-65
2024/01/02 06:45:55;;;;;;;7.30;2.67;;;4.00;99.90;;;;;;4922370;29;20490;-64
2024/01/02 06:48:21;;;;;;;6.80;3.27;;;4.10;99.90;;;;;;4914942;29;20242;-64
2024/01/02 06:50:47;;;;;;;3.77;2.50;;;4.10;99.90;;;;;;4914977;29;20180;-64
2024/01/02 06:53:13;;;;;;;7.60;3.10;;;4.00;99.90;;;;;;4915480;29;20657;-64
2024/01/02 06:55:39;;;;;;;4.47;2.00;;;4.00;99.90;;;;;;4911066;29;20434;-65
2024/01/02 06:58:04;;;;;;;7.40;2.33;;;4.00;99.90;;;;;;4916611;29;20469;-64
2024/01/02 07:00:30;;;;;;;6.60;3.10;;;4.10;99.90;;;;;;4920047;29;20172;-64
2024/01/02 07:02:56;;;;;;;3.30;2.80;;;4.10;99.90;;;;;;4922021;29;20179;-66
2024/01/02 07:05:21;;;;;;;5.17;2.57;;;4.10;99.90;;;;;;4915018;29;20561;-64
2024/01/02 07:07:47;;;;;;;7.47;3.10;;;4.10;99.90;;;;;;4911428;29;20219;-64
2024/01/02 07:10:13;;;;;;;5.90;2.60;;;4.10;99.90;;;;;;4916971;29;20179;-65
2024/01/02 07:12:39;;;;;;;5.03;2.20;;;4.20;99.90;;;;;;4918638;29;20251;-65
2024/01/02 07:15:05;;;;;;;5.33;2.30;;;4.20;99.90;;;;;;4918819;29;20176;-64
2024/01/02 07:17:31;;;;;;;7.20;2.67;;;4.20;99.90;;;;;;4919423;29;20807;-65
2024/01/02 07:19:58;;;;;;;6.80;2.50;;;4.20;99.90;;;;;;4920564;29;20475;-65
2024/01/02 07:22:24;;;;;;;4.97;2.50;;;4.20;99.90;;;;;;4918729;29;20420;-63
2024/01/02 07:24:49;;;;;;;9.73;2.57;;;4.30;99.90;;;;;;4918034;29;20420;-64
2024/01/02 07:27:15;;;;;;;3.23;2.27;;;4.30;99.90;;;;;;4923424;29;20473;-65
2024/01/02 07:29:41;;;;;;;11.73;3.60;;;4.30;99.90;;;;;;4920685;29;20271;-65
2024/01/02 07:32:07;;;;;;;3.77;2.07;;;4.30;99.90;;;;;;4918598;29;20186;-65
2024/01/02 07:34:32;;;;;;;3.90;2.90;;;4.30;99.90;;;;;;4918050;29;20435;-62
2024/01/02 07:36:59;;;;;;;4.30;2.10;;;4.30;99.90;;;;;;4919327;29;20279;-65
2024/01/02 07:39:26;;;;;;;9.67;2.83;;;4.30;99.90;;;;;;4922083;29;20187;-65
2024/01/02 07:41:52;;;;;;;8.10;2.47;;;4.30;99.90;;;;;;4917794;29;20420;-65
2024/01/02 07:44:17;;;;;;;7.60;2.37;;;4.30;99.90;;;;;;4918112;29;20424;-65
2024/01/02 07:46:43;;;;;;;4.90;2.53;;;4.30;99.90;;;;;;4915097;29;20210;-65
2024/01/02 07:49:09;;;;;;;6.70;4.70;;;4.30;99.90;;;;;;4919097;29;20247;-64
2024/01/02 07:51:35;;;;;;;5.40;2.80;;;4.30;99.90;;;;;;4919032;29;20510;-64
2024/01/02 07:54:01;;;;;;;12.10;3.00;;;4.30;99.90;;;;;;4920980;29;20942;-64
2024/01/02 07:56:26;;;;;;;5.03;2.77;;;4.40;99.90;;;;;;4914607;29;20192;-64
2024/01/02 07:58:52;;;;;;;5.67;2.90;;;4.40;99.90;;;;;;4918114;29;20235;-64
2024/01/02 08:01:18;;;;;;;5.67;2.77;;;4.40;99.90;;;;;;4922957;29;20172;-65
2024/01/02 08:03:44;;;;;;;4.73;3.53;;;4.40;99.90;;;;;;4917684;29;20546;-64
2024/01/02 08:06:10;;;;;;;7.00;2.10;;;4.50;99.90;;;;;;4917355;29;20183;-65
2024/01/02 08:08:35;;;;;;;9.33;2.90;;;4.50;99.90;;;;;;4915547;29;20455;-64
2024/01/02 08:11:01;;;;;;;8.13;2.30;;;4.50;99.90;;;;;;4917170;29;20184;-63
2024/01/02 08:13:26;;;;;;;5.17;2.37;;;4.50;99.90;;;;;;4918136;29;20666;-64
2024/01/02 08:15:52;;;;;;;4.57;2.17;;;4.50;99.90;;;;;;4917573;29;20275;-64
2024/01/02 08:18:18;;;;;;;2.50;1.90;;;4.50;99.90;;;;;;4917154;29;20222;-64
2024/01/02 08:20:43;;;;;;;7.30;2.73;;;4.60;99.90;;;;;;4916763;29;20479;-64
2024/01/02 08:23:09;;;;;;;6.27;3.57;;;4.60;99.90;;;;;;4916998;29;20184;-63
2024/01/02 08:25:35;;;;;;;5.60;2.03;;;4.60;99.90;;;;;;4919056;29;20270;-65
2024/01/02 08:28:01;;;;;;;8.40;2.40;;;4.70;99.90;;;;;;4917923;29;20686;-63
2024/01/02 08:30:26;;;;;;;4.03;2.60;;;4.70;99.90;;;;;;4917848;29;20194;-66
2024/01/02 08:32:52;;;;;;;4.97;2.33;;;4.80;99.90;;;;;;4917493;29;20179;-66
2024/01/02 08:35:17;;;;;;;3.37;1.63;;;4.80;99.90;;;;;;4917108;29;20251;-65
2024/01/02 08:37:44;;;;;;;6.50;1.90;;;4.80;99.90;;;;;;4923263;29;20203;-64
2024/01/02 08:40:10;;;;;;;7.13;2.43;;;4.80;99.90;;;;;;4917712;29;20182;-64
2024/01/02 08:42:36;;;;;;;5.37;2.60;;;4.70;99.90;;;;;;4917091;29;20770;-64
2024/01/02 08:45:03;;;;;;;4.30;2.10;;;4.70;99.90;;;;;;4909436;29;20428;-64
2024/01/02 08:47:29;;;;;;;8.03;2.47;;;4.80;99.90;;;;;;4918813;29;20204;-64
2024/01/02 08:49:54;;;;;;;4.60;2.20;;;4.80;99.90;;;;;;4909350;29;20426;-64
2024/01/02 08:52:20;;;;;;;11.60;2.73;;;4.80;99.90;;;;;;4916721;29;20175;-64
2024/01/02 08:54:46;;;;;;;6.10;2.90;;;4.80;99.90;;;;;;4916660;29;20184;-64
2024/01/02 08:57:11;;;;;;;6.63;2.07;;;4.90;99.90;;;;;;4918189;29;20208;-63
2024/01/02 08:59:37;;;;;;;5.57;2.67;;;4.90;99.90;;;;;;4912354;29;20255;-64
2024/01/02 09:02:02;;;;;;;4.20;2.70;;;4.90;99.90;;;;;;4916878;29;20183;-66
2024/01/02 09:04:28;;;;;;;2.80;2.10;;;4.80;99.90;;;;;;4916561;29;20251;-66
2024/01/02 09:06:54;;;;;;;6.53;2.40;;;4.90;99.90;;;;;;4916464;29;20226;-65
2024/01/02 09:09:19;;;;;;;4.83;2.07;;;4.90;99.90;;;;;;4916699;29;20190;-63
2024/01/02 09:11:46;;;;;;;3.13;2.83;;;4.90;99.90;;;;;;4915781;29;20179;-67
2024/01/02 09:14:12;;;;;;;7.13;2.23;;;4.90;99.90;;;;;;4917335;29;20183;-67
2024/01/02 09:16:39;;;;;;;7.50;2.03;;;4.90;99.90;;;;;;4917534;29;20444;-67
2024/01/02 09:19:04;;;;;;;3.40;2.00;;;4.90;99.90;;;;;;4907973;29;20177;-67
2024/01/02 09:21:30;;;;;;;5.13;2.30;;;5.00;99.90;;;;;;4922278;29;20772;-65
2024/01/02 09:23:56;;;;;;;3.53;1.83;;;4.90;99.90;;;;;;4915818;29;20176;-64
2024/01/02 09:26:23;;;;;;;4.90;2.67;;;5.00;99.90;;;;;;4915541;29;20251;-65
2024/01/02 09:28:49;;;;;;;2.17;1.87;;;5.00;99.90;;;;;;4915524;29;20430;-65
2024/01/02 09:31:15;;;;;;;3.87;2.20;;;5.00;99.90;;;;;;4915944;29;20507;-65
2024/01/02 09:33:44;;;;;;;3.93;2.27;;;5.00;99.90;;;;;;4910792;29;20445;-65
2024/01/02 09:36:09;;;;;;;3.70;2.20;;;5.00;99.90;;;;;;4911665;29;20183;-65
2024/01/02 09:38:38;;;;;;;3.53;3.00;;;5.10;99.90;;;;;;4912861;29;20830;-63
2024/01/02 09:41:19;;;;;;;9.13;2.27;;;5.10;99.90;;;;;;4915353;29;20180;-62
2024/01/02 09:44:16;;;;;;;3.00;1.83;;;5.00;99.90;;;;;;4913514;29;20514;-65
2024/01/02 09:47:02;;;;;;;2.83;1.73;;;5.10;99.90;;;;;;4915176;29;20479;-64
2024/01/02 09:49:54;;;;;;;5.07;1.77;;;5.10;99.90;;;;;;4915676;29;20443;-65
2024/01/02 09:52:29;;;;;;;3.03;2.00;;;5.10;99.90;;;;;;4910867;29;20435;-65
2024/01/02 09:55:29;;;;;;;3.93;2.43;;;5.10;99.90;;;;;;4914053;29;20435;-64
2024/01/02 09:58:06;;;;;;;4.13;2.17;;;5.10;99.90;;;;;;4918942;29;20973;-64
2024/01/02 10:00:45;;;;;;;4.93;2.37;;;5.10;99.90;;;;;;4915230;29;20422;-65
2024/01/02 10:03:24;;;;;;;6.73;2.60;;;5.10;99.90;;;;;;4908100;29;20427;-63
2024/01/02 10:06:10;;;;;;;2.33;2.13;;;5.10;99.90;;;;;;4913146;29;20522;-65
2024/01/02 10:09:11;;;;;;;3.60;1.80;;;5.10;99.90;;;;;;4909476;29;20463;-63
2024/01/02 10:11:53;;;;;;;5.13;2.83;;;5.10;99.90;;;;;;4908679;29;20450;-65
2024/01/02 10:14:30;;;;;;;2.47;2.17;;;5.00;99.90;;;;;;4911965;29;20498;-66
2024/01/02 10:17:05;;;;;;;3.17;2.37;;;5.00;99.90;;;;;;4918393;29;20502;-65
2024/01/02 10:20:03;;;;;;;3.40;2.23;;;5.00;99.90;;;;;;4915631;29;20775;-65
2024/01/02 10:22:55;;;;;;;4.47;3.17;;;5.00;99.90;;;;;;4901386;29;20983;-66
2024/01/02 10:25:21;;;;;;;3.77;2.33;;;5.10;99.90;;;;;;4918770;29;20437;-65
2024/01/02 10:28:07;;;;;;;7.07;2.37;;;5.10;99.90;;;;;;4913354;29;20846;-65
2024/01/02 10:31:04;;;;;;;5.37;3.23;;;5.10;99.90;;;;;;4913282;29;20474;-64
2024/01/02 10:33:53;;;;;;;2.73;2.07;;;5.10;99.90;;;;;;4910057;29;20521;-65
2024/01/02 10:36:22;;;;;;;3.83;2.10;;;5.10;99.90;;;;;;4914649;29;20856;-68
2024/01/02 10:39:10;;;;;;;3.80;2.67;;;5.10;99.90;;;;;;4910072;29;20427;-67
2024/01/02 10:41:57;;;;;;;3.93;2.13;;;5.10;99.90;;;;;;4908508;29;20427;-65
2024/01/02 10:44:40;;;;;;;12.13;3.00;;;5.10;99.90;;;;;;4913736;29;20436;-70
2024/01/02 10:47:31;;;;;;;4.43;2.60;;;5.00;99.90;;;;;;4918220;29;20949;-67
2024/01/02 10:50:04;;;;;;;32.70;21.13;;;5.00;99.90;;;;;;4918422;29;20455;-67
2024/01/02 10:53:10;;;;;;;13.43;10.10;;;5.10;99.90;;;;;;4918583;29;20451;-66
2024/01/02 10:56:04;;;;;;;10.17;3.23;;;5.30;99.90;;;;;;4911912;29;20832;-65
2024/01/02 10:58:41;;;;;;;5.30;2.70;;;5.10;99.90;;;;;;4912867;29;20477;-65
2024/01/02 11:01:12;;;;;;;5.27;2.17;;;5.10;99.90;;;;;;4916409;29;20421;-65
2024/01/02 11:04:04;;;;;;;7.73;2.90;;;5.10;99.90;;;;;;4911220;29;20753;-65
2024/01/02 11:06:44;;;;;;;3.63;2.10;;;5.20;99.90;;;;;;4915965;29;20400;-65
2024/01/02 11:09:26;;;;;;;2.40;2.13;;;5.10;99.90;;;;;;4908848;29;20882;-66
2024/01/02 11:11:56;;;;;;;4.93;2.50;;;5.20;99.90;;;;;;4916971;29;20440;-65
2024/01/02 11:14:25;;;;;;;3.70;2.97;;;5.20;99.90;;;;;;4912035;29;20483;-65
2024/01/02 11:16:53;;;;;;;4.00;2.77;;;5.20;99.90;;;;;;4917952;29;20470;-64
2024/01/02 11:19:27;;;;;;;2.77;2.57;;;5.20;99.90;;;;;;4913089;29;20799;-66
2024/01/02 11:22:06;;;;;;;2.83;2.60;;;5.20;99.90;;;;;;4915947;29;20463;-65
2024/01/02 11:24:34;;;;;;;4.70;2.97;;;5.20;99.90;;;;;;4913681;29;20467;-66
2024/01/02 11:27:04;;;;;;;3.43;2.47;;;5.20;99.90;;;;;;4914370;29;20522;-66
2024/01/02 11:29:35;;;;;;;28.03;14.87;;;5.10;99.90;;;;;;4917619;29;20427;-66
2024/01/02 11:32:06;;;;;;;4.70;2.77;;;5.40;99.90;;;;;;4920438;29;20416;-66
2024/01/02 11:34:43;;;;;;;4.50;2.80;;;5.40;99.90;;;;;;4911576;29;20419;-65
2024/01/02 11:37:28;;;;;;;2.97;2.67;;;5.30;99.90;;;;;;4917972;29;20471;-65
2024/01/02 11:40:16;;;;;;;4.00;2.80;;;5.30;99.90;;;;;;4917374;29;20412;-65
2024/01/02 11:43:03;;;;;;;3.10;2.90;;;5.30;99.90;;;;;;4916592;29;20439;-65
2024/01/02 11:45:37;;;;;;;3.93;2.93;;;5.30;99.90;;;;;;4914410;29;20459;-64
2024/01/02 11:48:24;;;;;;;6.03;2.57;;;5.40;99.90;;;;;;4914583;29;20515;-64
2024/01/02 11:51:02;;;;;;;4.30;2.80;;;5.40;99.90;;;;;;4914639;29;20424;-65
2024/01/02 11:53:53;;;;;;;5.03;2.57;;;5.40;99.90;;;;;;4907786;29;20427;-65
2024/01/02 11:56:27;;;;;;;3.43;2.80;;;5.40;99.90;;;;;;4912418;29;20889;-65
2024/01/02 11:59:27;;;;;;;3.67;2.70;;;5.50;99.90;;;;;;4915629;29;20576;-65
2024/01/02 12:02:02;;;;;;;4.53;2.70;;;5.40;99.90;;;;;;4908413;29;20500;-66
2024/01/02 12:04:43;;;;;;;3.33;2.43;;;5.30;99.90;;;;;;4913649;29;20430;-66
2024/01/02 12:07:09;;;;;;;6.23;2.90;;;5.30;99.90;;;;;;4912151;29;20463;-66
2024/01/02 12:09:40;;;;;;;2.63;2.23;;;5.30;99.90;;;;;;4916412;29;20491;-65
2024/01/02 12:12:17;;;;;;;5.73;2.97;;;5.30;99.90;;;;;;4912782;29;20943;-66
2024/01/02 12:15:03;;;;;;;3.10;2.50;;;5.30;99.90;;;;;;4905627;29;20758;-66
2024/01/02 12:17:31;;;;;;;3.33;3.07;;;5.30;99.90;;;;;;4911054;29;20523;-66
2024/01/02 12:20:08;;;;;;;5.83;3.23;;;5.30;99.90;;;;;;4919506;29;20555;-65
2024/01/02 12:22:34;;;;;;;4.30;3.30;;;5.30;99.90;;;;;;4912964;29;20428;-65
2024/01/02 12:25:04;;;;;;;3.97;3.60;;;5.30;99.90;;;;;;4916244;29;20925;-64
2024/01/02 12:27:32;;;;;;;3.43;3.00;;;5.40;99.90;;;;;;4917143;29;20442;-64
2024/01/02 12:30:06;;;;;;;3.10;2.80;;;5.40;99.90;;;;;;4916481;29;20858;-64
2024/01/02 12:32:49;;;;;;;3.20;2.90;;;5.40;99.90;;;;;;4906443;29;20432;-62
2024/01/02 12:35:56;;;;;;;4.70;4.17;;;5.40;99.90;;;;;;4908640;29;20475;-64
2024/01/02 12:38:23;;;;;;;9.37;3.07;;;5.40;99.90;;;;;;4912938;29;20978;-64
2024/01/02 12:40:51;;;;;;;4.17;2.80;;;5.40;99.90;;;;;;4907598;29;20441;-65
2024/01/02 12:43:25;;;;;;;3.03;2.73;;;5.40;99.90;;;;;;4905841;29;20417;-66
2024/01/02 12:46:03;;;;;;;3.63;2.57;;;5.40;99.90;;;;;;4908105;29;20412;-65
2024/01/02 12:48:37;;;;;;;3.50;2.90;;;5.40;99.90;;;;;;4906885;29;20818;-65
2024/01/02 12:51:05;;;;;;;4.40;3.47;;;5.40;99.90;;;;;;4904876;29;20424;-64
2024/01/02 12:53:35;;;;;;;3.10;2.77;;;5.40;99.90;;;;;;4910873;29;20919;-64
2024/01/02 12:56:04;;;;;;;3.90;3.33;;;5.50;99.90;;;;;;4908068;29;20450;-65
2024/01/02 12:58:31;;;;;;;3.23;3.03;;;5.40;99.90;;;;;;4912897;29;20477;-65
2024/01/02 13:00:58;;;;;;;7.70;4.17;;;5.60;99.90;;;;;;4910305;29;20468;-64
2024/01/02 13:03:24;;;;;;;3.67;2.57;;;5.50;99.90;;;;;;4910585;29;20484;-65
2024/01/02 13:05:52;;;;;;;3.77;3.40;;;5.40;99.90;;;;;;4912662;29;20431;-64